sensor_id;sensor_type;location;lat;lon;timestamp;pressure;altitude;pressure_sealevel;temperature;humidity
48390;BME280;34643;47.964;7.982;2022-10-16T00:04:11;96583.84;;;18.38;67.40
48390;BME280;34643;47.964;7.982;2022-10-16T00:09:11;96582.06;;;18.38;67.37
48390;BME280;34643;47.964;7.982;2022-10-16T00:14:13;96578.50;;;18.39;67.38
48390;BME280;34643;47.964;7.982;2022-10-16T00:19:13;96581.25;;;18.38;67.38
48390;BME280;34643;47.964;7.982;2022-10-16T00:24:14;96591.69;;;18.38;67.10
48390;BME280;34643;47.964;7.982;2022-10-16T00:29:14;96589.19;;;18.36;67.39
48390;BME280;34643;47.964;7.982;2022-10-16T00:34:14;96589.19;;;18.36;67.42
48390;BME280;34643;47.964;7.982;2022-10-16T00:39:15;96604.88;;;18.36;67.41
48390;BME280;34643;47.964;7.982;2022-10-16T00:49:34;96594.41;;;18.36;67.41
48390;BME280;34643;47.964;7.982;2022-10-16T00:54:34;96599.75;;;18.35;67.47
48390;BME280;34643;47.964;7.982;2022-10-16T00:59:36;96603.22;;;18.35;67.53
48390;BME280;34643;47.964;7.982;2022-10-16T01:04:42;96604.06;;;18.36;67.40
48390;BME280;34643;47.964;7.982;2022-10-16T01:10:04;96611.19;;;18.34;67.52
48390;BME280;34643;47.964;7.982;2022-10-16T01:15:13;96619.84;;;18.34;67.56
48390;BME280;34643;47.964;7.982;2022-10-16T01:25:39;96612.84;;;18.35;67.51
48390;BME280;34643;47.964;7.982;2022-10-16T01:30:46;96610.34;;;18.33;67.72
48390;BME280;34643;47.964;7.982;2022-10-16T01:35:48;96618.91;;;18.35;67.49
48390;BME280;34643;47.964;7.982;2022-10-16T01:40:52;96621.63;;;18.34;67.63
48390;BME280;34643;47.964;7.982;2022-10-16T01:45:57;96626.75;;;18.35;67.62
48390;BME280;34643;47.964;7.982;2022-10-16T01:51:03;96606.78;;;18.34;67.56
48390;BME280;34643;47.964;7.982;2022-10-16T01:56:06;96608.56;;;18.34;67.57
48390;BME280;34643;47.964;7.982;2022-10-16T02:01:08;96612.00;;;18.34;67.63
48390;BME280;34643;47.964;7.982;2022-10-16T02:06:11;96594.66;;;18.33;67.41
48390;BME280;34643;47.964;7.982;2022-10-16T02:11:11;96605.13;;;18.33;67.57
48390;BME280;34643;47.964;7.982;2022-10-16T02:16:12;96605.13;;;18.33;67.56
48390;BME280;34643;47.964;7.982;2022-10-16T02:21:34;96613.69;;;18.35;67.45
48390;BME280;34643;47.964;7.982;2022-10-16T02:26:42;96615.56;;;18.33;67.60
48390;BME280;34643;47.964;7.982;2022-10-16T02:31:45;96615.56;;;18.33;67.46
48390;BME280;34643;47.964;7.982;2022-10-16T02:36:47;96613.94;;;18.32;67.58
48390;BME280;34643;47.964;7.982;2022-10-16T02:41:48;96615.56;;;18.33;67.59
48390;BME280;34643;47.964;7.982;2022-10-16T02:46:48;96624.25;;;18.34;67.78
48390;BME280;34643;47.964;7.982;2022-10-16T02:51:49;96632.69;;;18.37;67.67
48390;BME280;34643;47.964;7.982;2022-10-16T02:56:49;96626.88;;;18.34;67.93
48390;BME280;34643;47.964;7.982;2022-10-16T03:01:49;96626.88;;;18.34;67.60
48390;BME280;34643;47.964;7.982;2022-10-16T03:06:50;96633.75;;;18.35;67.71
48390;BME280;34643;47.964;7.982;2022-10-16T03:11:50;96630.41;;;18.33;67.60
48390;BME280;34643;47.964;7.982;2022-10-16T03:16:52;96645.16;;;18.34;67.68
48390;BME280;34643;47.964;7.982;2022-10-16T03:21:52;96631.25;;;18.33;67.71
48390;BME280;34643;47.964;7.982;2022-10-16T03:26:52;96629.59;;;18.32;67.79
48390;BME280;34643;47.964;7.982;2022-10-16T03:31:53;96627.81;;;18.33;67.65
48390;BME280;34643;47.964;7.982;2022-10-16T03:36:53;96630.41;;;18.33;67.86
48390;BME280;34643;47.964;7.982;2022-10-16T03:41:53;96625.31;;;18.31;67.59
48390;BME280;34643;47.964;7.982;2022-10-16T03:46:54;96620.94;;;18.32;67.76
48390;BME280;34643;47.964;7.982;2022-10-16T03:51:54;96624.38;;;18.32;67.56
48390;BME280;34643;47.964;7.982;2022-10-16T03:56:54;96631.41;;;18.32;67.75
48390;BME280;34643;47.964;7.982;2022-10-16T04:01:54;96639.22;;;18.32;67.59
48390;BME280;34643;47.964;7.982;2022-10-16T04:06:55;96634.00;;;18.32;67.57
48390;BME280;34643;47.964;7.982;2022-10-16T04:11:55;96640.88;;;18.33;67.84
48390;BME280;34643;47.964;7.982;2022-10-16T04:16:55;96639.34;;;18.30;67.83
48390;BME280;34643;47.964;7.982;2022-10-16T04:21:56;96642.66;;;18.32;67.57
48390;BME280;34643;47.964;7.982;2022-10-16T04:26:56;96648.00;;;18.31;67.90
48390;BME280;34643;47.964;7.982;2022-10-16T04:31:56;96649.69;;;18.32;67.66
48390;BME280;34643;47.964;7.982;2022-10-16T04:36:57;96648.84;;;18.31;67.61
48390;BME280;34643;47.964;7.982;2022-10-16T04:41:57;96654.06;;;18.31;67.63
48390;BME280;34643;47.964;7.982;2022-10-16T04:46:57;96658.34;;;18.32;67.57
48390;BME280;34643;47.964;7.982;2022-10-16T04:51:57;96654.06;;;18.31;67.59
48390;BME280;34643;47.964;7.982;2022-10-16T04:56:58;96648.84;;;18.31;67.65
48390;BME280;34643;47.964;7.982;2022-10-16T05:01:58;96651.78;;;18.38;67.27
48390;BME280;34643;47.964;7.982;2022-10-16T05:06:58;96634.41;;;18.48;67.18
48390;BME280;34643;47.964;7.982;2022-10-16T05:11:59;96644.88;;;18.48;67.07
48390;BME280;34643;47.964;7.982;2022-10-16T05:16:59;96658.75;;;18.49;67.15
48390;BME280;34643;47.964;7.982;2022-10-16T05:22:00;96656.03;;;18.50;66.92
48390;BME280;34643;47.964;7.982;2022-10-16T05:27:00;96682.16;;;18.50;67.17
48390;BME280;34643;47.964;7.982;2022-10-16T05:32:00;96673.50;;;18.50;67.05
48390;BME280;34643;47.964;7.982;2022-10-16T05:37:01;96681.34;;;18.50;67.11
48390;BME280;34643;47.964;7.982;2022-10-16T05:42:01;96687.28;;;18.52;67.12
48390;BME280;34643;47.964;7.982;2022-10-16T05:47:02;96683.69;;;18.53;67.15
48390;BME280;34643;47.964;7.982;2022-10-16T05:52:02;96687.28;;;18.52;67.24
48390;BME280;34643;47.964;7.982;2022-10-16T05:57:02;96685.13;;;18.57;67.31
48390;BME280;34643;47.964;7.982;2022-10-16T06:02:05;96691.06;;;18.59;67.42
48390;BME280;34643;47.964;7.982;2022-10-16T06:07:05;96681.06;;;18.64;67.69
48390;BME280;34643;47.964;7.982;2022-10-16T06:12:06;96695.53;;;18.68;67.90
48390;BME280;34643;47.964;7.982;2022-10-16T06:17:06;96701.63;;;18.57;67.88
48390;BME280;34643;47.964;7.982;2022-10-16T06:22:06;96700.34;;;18.52;67.95
48390;BME280;34643;47.964;7.982;2022-10-16T06:27:07;96713.66;;;18.49;67.81
48390;BME280;34643;47.964;7.982;2022-10-16T06:32:07;96713.88;;;18.46;67.90
48390;BME280;34643;47.964;7.982;2022-10-16T06:37:08;96734.09;;;18.43;67.86
48390;BME280;34643;47.964;7.982;2022-10-16T06:42:08;96738.59;;;18.41;67.77
48390;BME280;34643;47.964;7.982;2022-10-16T06:47:09;96754.28;;;18.41;67.87
48390;BME280;34643;47.964;7.982;2022-10-16T06:52:10;96752.66;;;18.40;67.50
48390;BME280;34643;47.964;7.982;2022-10-16T06:57:10;96750.25;;;18.37;67.49
48390;BME280;34643;47.964;7.982;2022-10-16T07:02:11;96745.16;;;18.36;67.58
48390;BME280;34643;47.964;7.982;2022-10-16T07:07:11;96762.63;;;18.35;67.49
48390;BME280;34643;47.964;7.982;2022-10-16T07:12:11;96776.63;;;18.34;67.31
48390;BME280;34643;47.964;7.982;2022-10-16T07:17:12;96781.97;;;18.33;67.46
48390;BME280;34643;47.964;7.982;2022-10-16T07:22:12;96793.25;;;18.33;67.22
48390;BME280;34643;47.964;7.982;2022-10-16T07:27:12;96792.41;;;18.33;66.98
48390;BME280;34643;47.964;7.982;2022-10-16T07:32:12;96797.75;;;18.31;67.23
48390;BME280;34643;47.964;7.982;2022-10-16T07:37:13;96803.09;;;18.30;67.01
48390;BME280;34643;47.964;7.982;2022-10-16T07:42:13;96813.56;;;18.30;67.07
48390;BME280;34643;47.964;7.982;2022-10-16T07:47:14;96828.41;;;18.29;66.98
48390;BME280;34643;47.964;7.982;2022-10-16T07:52:14;96824.00;;;18.30;66.80
48390;BME280;34643;47.964;7.982;2022-10-16T07:57:14;96836.13;;;18.31;66.83
48390;BME280;34643;47.964;7.982;2022-10-16T08:02:19;96843.03;;;18.32;66.75
48390;BME280;34643;47.964;7.982;2022-10-16T08:07:19;96854.31;;;18.32;66.93
48390;BME280;34643;47.964;7.982;2022-10-16T08:12:19;96853.50;;;18.32;66.68
48390;BME280;34643;47.964;7.982;2022-10-16T08:17:20;96850.03;;;18.31;66.86
48390;BME280;34643;47.964;7.982;2022-10-16T08:22:20;96850.03;;;18.31;66.63
48390;BME280;34643;47.964;7.982;2022-10-16T08:27:20;96867.50;;;18.31;66.77
48390;BME280;34643;47.964;7.982;2022-10-16T08:32:21;96864.88;;;18.31;66.62
48390;BME280;34643;47.964;7.982;2022-10-16T08:37:21;96868.31;;;18.31;66.68
48390;BME280;34643;47.964;7.982;2022-10-16T08:47:35;96862.84;;;18.34;66.35
48390;BME280;34643;47.964;7.982;2022-10-16T08:52:39;96853.81;;;18.38;66.21
48390;BME280;34643;47.964;7.982;2022-10-16T08:57:40;96858.13;;;18.39;66.24
48390;BME280;34643;47.964;7.982;2022-10-16T09:02:44;96855.50;;;18.39;66.17
48390;BME280;34643;47.964;7.982;2022-10-16T09:13:03;96867.84;;;18.37;66.26
48390;BME280;34643;47.964;7.982;2022-10-16T09:28:13;96881.63;;;18.39;66.40
48390;BME280;34643;47.964;7.982;2022-10-16T09:33:13;96882.81;;;18.47;66.11
48390;BME280;34643;47.964;7.982;2022-10-16T09:38:31;96888.06;;;18.47;66.03
48390;BME280;34643;47.964;7.982;2022-10-16T09:43:36;96891.38;;;18.49;66.09
48390;BME280;34643;47.964;7.982;2022-10-16T09:48:47;96886.16;;;18.49;66.21
48390;BME280;34643;47.964;7.982;2022-10-16T09:53:48;96878.31;;;18.49;66.06
48390;BME280;34643;47.964;7.982;2022-10-16T09:58:52;96882.47;;;18.51;66.10
48390;BME280;34643;47.964;7.982;2022-10-16T10:03:55;96879.72;;;18.53;65.94
48390;BME280;34643;47.964;7.982;2022-10-16T10:09:02;96887.34;;;18.56;65.90
48390;BME280;34643;47.964;7.982;2022-10-16T10:14:04;96898.50;;;18.58;66.14
48390;BME280;34643;47.964;7.982;2022-10-16T10:19:09;96896.59;;;18.60;66.03
48390;BME280;34643;47.964;7.982;2022-10-16T10:24:14;96886.88;;;18.62;66.03
48390;BME280;34643;47.964;7.982;2022-10-16T10:29:20;96890.31;;;18.62;66.07
48390;BME280;34643;47.964;7.982;2022-10-16T10:34:30;96885.91;;;18.63;66.12
48390;BME280;34643;47.964;7.982;2022-10-16T10:39:40;96880.69;;;18.63;66.33
48390;BME280;34643;47.964;7.982;2022-10-16T10:49:54;96882.47;;;18.62;66.29
48390;BME280;34643;47.964;7.982;2022-10-16T10:55:00;96882.34;;;18.64;66.31
48390;BME280;34643;47.964;7.982;2022-10-16T11:05:27;96877.13;;;18.64;66.17
48390;BME280;34643;47.964;7.982;2022-10-16T11:15:47;96862.16;;;18.66;66.18
48390;BME280;34643;47.964;7.982;2022-10-16T11:20:50;96861.44;;;18.64;66.11
48390;BME280;34643;47.964;7.982;2022-10-16T11:25:52;96857.03;;;18.65;65.93
48390;BME280;34643;47.964;7.982;2022-10-16T11:30:57;96862.16;;;18.66;66.08
48390;BME280;34643;47.964;7.982;2022-10-16T11:41:03;96849.91;;;18.67;66.20
48390;BME280;34643;47.964;7.982;2022-10-16T11:46:12;96857.75;;;18.67;66.20
48390;BME280;34643;47.964;7.982;2022-10-16T11:51:24;96855.00;;;18.68;66.19
48390;BME280;34643;47.964;7.982;2022-10-16T11:56:27;96860.22;;;18.68;66.09
48390;BME280;34643;47.964;7.982;2022-10-16T12:01:30;96863.81;;;18.67;66.14
48390;BME280;34643;47.964;7.982;2022-10-16T12:11:36;96858.59;;;18.67;66.16
48390;BME280;34643;47.964;7.982;2022-10-16T12:16:59;96854.19;;;18.68;66.07
48390;BME280;34643;47.964;7.982;2022-10-16T12:22:00;96850.53;;;18.82;63.52
48390;BME280;34643;47.964;7.982;2022-10-16T12:27:01;96843.66;;;19.13;58.21
48390;BME280;34643;47.964;7.982;2022-10-16T12:32:02;96842.41;;;19.28;53.83
48390;BME280;34643;47.964;7.982;2022-10-16T12:37:11;96837.25;;;19.38;53.61
48390;BME280;34643;47.964;7.982;2022-10-16T12:47:35;96834.41;;;19.41;51.37
48390;BME280;34643;47.964;7.982;2022-10-16T12:52:36;96827.13;;;19.45;51.72
48390;BME280;34643;47.964;7.982;2022-10-16T13:13:04;96813.22;;;19.44;51.67
48390;BME280;34643;47.964;7.982;2022-10-16T13:18:58;96821.81;;;19.35;53.65
48390;BME280;34643;47.964;7.982;2022-10-16T13:28:43;96820.94;;;19.46;54.04
48390;BME280;34643;47.964;7.982;2022-10-16T13:33:46;96818.22;;;19.36;55.77
48390;BME280;34643;47.964;7.982;2022-10-16T13:38:48;96823.28;;;19.28;56.20
48390;BME280;34643;47.964;7.982;2022-10-16T13:43:49;96822.41;;;19.38;56.28
48390;BME280;34643;47.964;7.982;2022-10-16T13:49:00;96820.50;;;19.62;55.32
48390;BME280;34643;47.964;7.982;2022-10-16T13:54:01;96810.59;;;19.44;56.74
48390;BME280;34643;47.964;7.982;2022-10-16T13:59:06;96817.34;;;19.47;56.05
48390;BME280;34643;47.964;7.982;2022-10-16T14:04:07;96831.28;;;19.47;55.14
48390;BME280;34643;47.964;7.982;2022-10-16T14:14:24;96827.00;;;19.46;55.64
48390;BME280;34643;47.964;7.982;2022-10-16T14:19:25;96830.63;;;19.34;56.50
48390;BME280;34643;47.964;7.982;2022-10-16T14:24:31;96828.06;;;19.23;57.01
48390;BME280;34643;47.964;7.982;2022-10-16T14:29:31;96824.88;;;19.08;57.89
48390;BME280;34643;47.964;7.982;2022-10-16T14:34:38;96828.81;;;19.02;58.55
48390;BME280;34643;47.964;7.982;2022-10-16T14:39:40;96832.41;;;19.01;58.60
48390;BME280;34643;47.964;7.982;2022-10-16T14:44:40;96831.69;;;18.99;59.04
48390;BME280;34643;47.964;7.982;2022-10-16T14:49:41;96824.81;;;18.98;59.26
48390;BME280;34643;47.964;7.982;2022-10-16T14:54:42;96835.25;;;18.98;59.26
48390;BME280;34643;47.964;7.982;2022-10-16T14:59:42;96830.16;;;18.96;59.44
48390;BME280;34643;47.964;7.982;2022-10-16T15:04:45;96839.78;;;18.96;59.66
48390;BME280;34643;47.964;7.982;2022-10-16T15:09:47;96843.34;;;18.95;59.70
48390;BME280;34643;47.964;7.982;2022-10-16T15:14:47;96840.72;;;18.95;59.80
48390;BME280;34643;47.964;7.982;2022-10-16T15:19:48;96845.13;;;18.94;59.95
48390;BME280;34643;47.964;7.982;2022-10-16T15:24:48;96850.38;;;18.94;60.13
48390;BME280;34643;47.964;7.982;2022-10-16T15:29:48;96850.38;;;18.94;60.04
48390;BME280;34643;47.964;7.982;2022-10-16T15:34:49;96847.06;;;18.92;60.22
48390;BME280;34643;47.964;7.982;2022-10-16T15:39:50;96847.88;;;18.93;60.19
48390;BME280;34643;47.964;7.982;2022-10-16T15:44:50;96855.72;;;18.93;60.26
48390;BME280;34643;47.964;7.982;2022-10-16T15:49:50;96856.66;;;18.92;60.43
48390;BME280;34643;47.964;7.982;2022-10-16T15:54:51;96867.13;;;18.92;60.56
48390;BME280;34643;47.964;7.982;2022-10-16T15:59:51;96867.13;;;18.92;60.47
48390;BME280;34643;47.964;7.982;2022-10-16T16:04:51;96871.53;;;18.91;60.73
48390;BME280;34643;47.964;7.982;2022-10-16T16:09:52;96880.34;;;18.90;60.81
48390;BME280;34643;47.964;7.982;2022-10-16T16:14:52;96887.09;;;18.93;60.86
48390;BME280;34643;47.964;7.982;2022-10-16T16:19:52;96892.81;;;18.98;61.13
48390;BME280;34643;47.964;7.982;2022-10-16T16:24:53;96886.03;;;18.95;61.13
48390;BME280;34643;47.964;7.982;2022-10-16T16:29:53;96882.56;;;18.95;61.37
48390;BME280;34643;47.964;7.982;2022-10-16T16:34:55;96892.34;;;18.93;61.45
48390;BME280;34643;47.964;7.982;2022-10-16T16:39:55;96896.88;;;18.91;61.44
48390;BME280;34643;47.964;7.982;2022-10-16T16:44:58;96907.31;;;18.91;61.47
48390;BME280;34643;47.964;7.982;2022-10-16T16:49:58;96909.94;;;18.91;61.64
48390;BME280;34643;47.964;7.982;2022-10-16T16:54:59;96922.19;;;18.90;61.61
48390;BME280;34643;47.964;7.982;2022-10-16T16:59:59;96927.53;;;18.89;61.69
48390;BME280;34643;47.964;7.982;2022-10-16T17:05:00;96927.53;;;18.89;61.51
48390;BME280;34643;47.964;7.982;2022-10-16T17:10:01;96940.63;;;18.89;61.49
48390;BME280;34643;47.964;7.982;2022-10-16T17:15:01;96943.94;;;18.91;61.63
48390;BME280;34643;47.964;7.982;2022-10-16T17:20:02;96956.28;;;19.00;61.61
48390;BME280;34643;47.964;7.982;2022-10-16T17:25:03;96951.19;;;18.98;61.90
48390;BME280;34643;47.964;7.982;2022-10-16T17:30:03;96958.31;;;18.96;61.97
48390;BME280;34643;47.964;7.982;2022-10-16T17:35:04;96964.38;;;18.97;61.94
48390;BME280;34643;47.964;7.982;2022-10-16T17:40:06;96963.41;;;19.09;62.63
48390;BME280;34643;47.964;7.982;2022-10-16T17:45:13;96979.56;;;19.26;62.58
48390;BME280;34643;47.964;7.982;2022-10-16T17:50:13;96978.66;;;19.15;62.82
48390;BME280;34643;47.964;7.982;2022-10-16T17:55:14;96992.66;;;19.14;63.05
48390;BME280;34643;47.964;7.982;2022-10-16T18:00:14;97002.19;;;19.27;63.77
48390;BME280;34643;47.964;7.982;2022-10-16T18:05:15;97015.97;;;19.17;64.30
48390;BME280;34643;47.964;7.982;2022-10-16T18:10:15;97015.28;;;19.15;64.02
48390;BME280;34643;47.964;7.982;2022-10-16T18:15:15;97021.22;;;19.17;64.19
48390;BME280;34643;47.964;7.982;2022-10-16T18:20:16;97012.78;;;19.14;64.25
48390;BME280;34643;47.964;7.982;2022-10-16T18:25:16;97027.75;;;19.12;64.56
48390;BME280;34643;47.964;7.982;2022-10-16T18:30:17;97024.28;;;19.11;64.34
48390;BME280;34643;47.964;7.982;2022-10-16T18:35:17;97033.94;;;19.11;64.22
48390;BME280;34643;47.964;7.982;2022-10-16T18:40:17;97030.50;;;19.10;64.51
48390;BME280;34643;47.964;7.982;2022-10-16T18:45:18;97032.16;;;19.11;65.16
48390;BME280;34643;47.964;7.982;2022-10-16T18:50:19;97039.06;;;19.12;64.56
48390;BME280;34643;47.964;7.982;2022-10-16T18:55:20;97049.53;;;19.12;65.15
48390;BME280;34643;47.964;7.982;2022-10-16T19:00:21;97047.84;;;19.11;65.20
48390;BME280;34643;47.964;7.982;2022-10-16T19:05:22;97044.28;;;19.12;65.18
48390;BME280;34643;47.964;7.982;2022-10-16T19:10:22;97061.66;;;19.13;65.06
48390;BME280;34643;47.964;7.982;2022-10-16T19:15:22;97061.66;;;19.13;65.38
48390;BME280;34643;47.964;7.982;2022-10-16T19:20:23;97061.66;;;19.13;65.45
48390;BME280;34643;47.964;7.982;2022-10-16T19:25:23;97064.28;;;19.13;65.42
48390;BME280;34643;47.964;7.982;2022-10-16T19:30:24;97077.22;;;19.15;65.22
48390;BME280;34643;47.964;7.982;2022-10-16T19:35:24;97083.31;;;19.15;65.25
48390;BME280;34643;47.964;7.982;2022-10-16T19:40:26;97082.44;;;19.15;65.70
48390;BME280;34643;47.964;7.982;2022-10-16T19:45:26;97092.91;;;19.15;65.70
48390;BME280;34643;47.964;7.982;2022-10-16T19:50:27;97108.50;;;19.16;65.49
48390;BME280;34643;47.964;7.982;2022-10-16T19:55:29;97116.34;;;19.16;65.81
48390;BME280;34643;47.964;7.982;2022-10-16T20:00:29;97128.63;;;19.16;65.64
48390;BME280;34643;47.964;7.982;2022-10-16T20:05:30;97126.81;;;19.16;65.98
48390;BME280;34643;47.964;7.982;2022-10-16T20:10:30;97133.72;;;19.17;65.93
48390;BME280;34643;47.964;7.982;2022-10-16T20:15:30;97147.53;;;19.19;65.60
48390;BME280;34643;47.964;7.982;2022-10-16T20:20:31;97146.22;;;19.25;65.46
48390;BME280;34643;47.964;7.982;2022-10-16T20:25:34;97148.50;;;19.30;65.88
48390;BME280;34643;47.964;7.982;2022-10-16T20:30:36;97151.56;;;19.24;66.10
48390;BME280;34643;47.964;7.982;2022-10-16T20:35:39;97159.69;;;19.21;66.22
48390;BME280;34643;47.964;7.982;2022-10-16T20:40:41;97167.53;;;19.21;66.18
48390;BME280;34643;47.964;7.982;2022-10-16T20:45:42;97176.19;;;19.21;66.20
48390;BME280;34643;47.964;7.982;2022-10-16T20:50:42;97172.75;;;19.21;66.11
48390;BME280;34643;47.964;7.982;2022-10-16T20:55:42;97176.31;;;19.19;66.23
48390;BME280;34643;47.964;7.982;2022-10-16T21:00:43;97176.31;;;19.19;66.04
48390;BME280;34643;47.964;7.982;2022-10-16T21:05:43;97170.25;;;19.19;66.14
48390;BME280;34643;47.964;7.982;2022-10-16T21:10:44;97180.72;;;19.19;66.22
48390;BME280;34643;47.964;7.982;2022-10-16T21:15:44;97183.34;;;19.19;66.20
48390;BME280;34643;47.964;7.982;2022-10-16T21:20:44;97181.56;;;19.19;66.40
48390;BME280;34643;47.964;7.982;2022-10-16T21:25:48;97174.63;;;19.18;66.20
48390;BME280;34643;47.964;7.982;2022-10-16T21:30:48;97182.63;;;19.17;66.07
48390;BME280;34643;47.964;7.982;2022-10-16T21:35:49;97187.88;;;19.17;66.39
48390;BME280;34643;47.964;7.982;2022-10-16T21:40:49;97184.38;;;19.16;66.36
48390;BME280;34643;47.964;7.982;2022-10-16T21:45:49;97182.75;;;19.15;66.17
48390;BME280;34643;47.964;7.982;2022-10-16T21:50:49;97187.88;;;19.17;66.16
48390;BME280;34643;47.964;7.982;2022-10-16T21:55:50;97191.31;;;19.17;66.22
48390;BME280;34643;47.964;7.982;2022-10-16T22:00:50;97191.31;;;19.17;66.34
48390;BME280;34643;47.964;7.982;2022-10-16T22:05:50;97183.44;;;19.17;66.37
48390;BME280;34643;47.964;7.982;2022-10-16T22:10:51;97181.78;;;19.16;66.38
48390;BME280;34643;47.964;7.982;2022-10-16T22:15:51;97176.44;;;19.18;66.46
48390;BME280;34643;47.964;7.982;2022-10-16T22:20:51;97183.44;;;19.17;66.34
48390;BME280;34643;47.964;7.982;2022-10-16T22:25:57;97184.28;;;19.18;66.35
48390;BME280;34643;47.964;7.982;2022-10-16T22:31:01;97183.44;;;19.17;66.64
48390;BME280;34643;47.964;7.982;2022-10-16T22:36:03;97182.63;;;19.17;66.54
48390;BME280;34643;47.964;7.982;2022-10-16T22:41:04;97181.78;;;19.16;66.50
48390;BME280;34643;47.964;7.982;2022-10-16T22:46:05;97183.56;;;19.16;66.54
48390;BME280;34643;47.964;7.982;2022-10-16T22:51:06;97185.34;;;19.15;66.78
48390;BME280;34643;47.964;7.982;2022-10-16T22:56:07;97193.22;;;19.15;66.61
48390;BME280;34643;47.964;7.982;2022-10-16T23:01:11;97193.22;;;19.15;66.71
48390;BME280;34643;47.964;7.982;2022-10-16T23:06:12;97193.22;;;19.15;66.83
48390;BME280;34643;47.964;7.982;2022-10-16T23:11:13;97210.56;;;19.16;66.69
48390;BME280;34643;47.964;7.982;2022-10-16T23:16:14;97205.31;;;19.16;66.50
48390;BME280;34643;47.964;7.982;2022-10-16T23:21:16;97205.22;;;19.18;66.57
48390;BME280;34643;47.964;7.982;2022-10-16T23:26:18;97207.13;;;19.16;66.53
48390;BME280;34643;47.964;7.982;2022-10-16T23:31:18;97200.09;;;19.16;66.69
48390;BME280;34643;47.964;7.982;2022-10-16T23:36:19;97207.81;;;19.18;66.90
48390;BME280;34643;47.964;7.982;2022-10-16T23:41:20;97202.59;;;19.18;66.80
48390;BME280;34643;47.964;7.982;2022-10-16T23:46:21;97213.16;;;19.16;66.77
48390;BME280;34643;47.964;7.982;2022-10-16T23:51:21;97217.47;;;19.17;66.87
48390;BME280;34643;47.964;7.982;2022-10-16T23:56:21;97219.13;;;19.18;66.84
